Time;durP1;ratioP1;P1;durP2;ratioP2;P2;SDS_P1;SDS_P2;PMS_P1;PMS_P2;Temp;Humidity;BMP_temperature;BMP_pressure;BME280_temperature;BME280_humidity;BME280_pressure;Samples;Min_cycle;Max_cycle;Signal;HPM_P1;HPM_P2
2023/08/29 00:01:32;;;;;;;5.95;5.45;;;;;;;;;;6239014;28;20104;-79
2023/08/29 00:04:34;;;;;;;21.00;7.78;;;;;;;;;;6211826;28;20041;-77
2023/08/29 00:07:37;;;;;;;6.55;5.95;;;;;;;;;;6218570;28;20753;-79
2023/08/29 00:10:38;;;;;;;6.53;5.93;;;;;;;;;;6232089;28;20046;-77
2023/08/29 00:13:40;;;;;;;6.43;5.82;;;;;;;;;;6211046;28;20405;-79
2023/08/29 00:16:45;;;;;;;6.75;6.15;;;;;;;;;;6234740;28;20053;-78
2023/08/29 00:19:47;;;;;;;7.03;6.28;;;;;;;;;;6239724;28;20609;-79
2023/08/29 00:22:49;;;;;;;7.63;5.93;;;;;;;;;;6232731;28;20049;-77
2023/08/29 00:25:50;;;;;;;7.47;6.00;;;;;;;;;;6236719;28;20125;-80
2023/08/29 00:28:53;;;;;;;6.65;5.88;;;;;;;;;;6230148;28;20046;-79
2023/08/29 00:31:55;;;;;;;10.02;5.75;;;;;;;;;;6230759;28;20049;-79
2023/08/29 00:34:56;;;;;;;6.25;5.72;;;;;;;;;;6231922;28;20045;-78
2023/08/29 00:37:58;;;;;;;6.95;5.50;;;;;;;;;;6233583;28;20049;-78
2023/08/29 00:41:00;;;;;;;6.40;5.80;;;;;;;;;;6227141;28;20045;-77
2023/08/29 00:44:01;;;;;;;6.95;6.25;;;;;;;;;;6201907;28;20042;-77
2023/08/29 00:47:04;;;;;;;6.57;5.85;;;;;;;;;;6214998;28;20049;-79
2023/08/29 00:50:09;;;;;;;7.85;6.57;;;;;;;;;;6230207;28;20055;-79
2023/08/29 00:53:13;;;;;;;9.13;6.13;;;;;;;;;;6216149;28;20176;-79
2023/08/29 00:56:18;;;;;;;7.93;6.72;;;;;;;;;;6217852;28;20041;-78
2023/08/29 00:59:21;;;;;;;7.47;6.78;;;;;;;;;;6228086;28;20475;-79
2023/08/29 01:02:22;;;;;;;8.18;6.60;;;;;;;;;;6228519;28;20129;-77
2023/08/29 01:05:25;;;;;;;7.97;6.70;;;;;;;;;;6235339;28;20125;-76
2023/08/29 01:08:26;;;;;;;7.82;6.13;;;;;;;;;;6230903;28;20049;-80
2023/08/29 01:11:45;;;;;;;9.40;6.82;;;;;;;;;;6232833;28;20048;-78
2023/08/29 01:14:59;;;;;;;7.47;6.47;;;;;;;;;;6227203;28;20124;-79
2023/08/29 01:18:05;;;;;;;7.25;6.53;;;;;;;;;;6208412;28;20038;-78
2023/08/29 01:21:26;;;;;;;8.80;6.50;;;;;;;;;;6219474;28;20115;-77
2023/08/29 01:24:40;;;;;;;8.00;7.20;;;;;;;;;;6234097;28;20500;-78
2023/08/29 01:27:42;;;;;;;7.38;6.63;;;;;;;;;;6236582;28;20455;-79
2023/08/29 01:30:45;;;;;;;7.95;7.03;;;;;;;;;;6211192;28;20073;-79
2023/08/29 01:33:47;;;;;;;8.20;6.95;;;;;;;;;;6233817;28;20161;-79
2023/08/29 01:36:49;;;;;;;9.37;8.10;;;;;;;;;;6230550;28;20072;-77
2023/08/29 01:39:51;;;;;;;12.40;8.60;;;;;;;;;;6217695;28;20440;-77
2023/08/29 01:42:53;;;;;;;9.70;6.70;;;;;;;;;;6215751;28;20072;-79
2023/08/29 01:45:54;;;;;;;6.85;6.03;;;;;;;;;;6231605;28;20053;-80
2023/08/29 01:48:58;;;;;;;7.45;6.25;;;;;;;;;;6223222;28;20043;-80
2023/08/29 01:52:00;;;;;;;7.20;6.20;;;;;;;;;;6208543;28;20046;-80
2023/08/29 01:55:02;;;;;;;6.70;6.00;;;;;;;;;;6191551;28;20050;-78
2023/08/29 01:58:05;;;;;;;11.02;6.85;;;;;;;;;;6225209;28;20070;-79
2023/08/29 02:01:07;;;;;;;7.03;6.43;;;;;;;;;;6218292;28;20423;-76
2023/08/29 02:04:24;;;;;;;7.30;5.90;;;;;;;;;;6218217;28;20042;-78
2023/08/29 02:07:26;;;;;;;6.97;6.00;;;;;;;;;;6218037;28;20043;-77
2023/08/29 02:10:28;;;;;;;6.47;5.82;;;;;;;;;;6234991;28;20127;-78
2023/08/29 02:13:31;;;;;;;6.78;6.07;;;;;;;;;;6199461;28;20041;-78
2023/08/29 02:16:32;;;;;;;8.13;5.80;;;;;;;;;;6216449;28;20400;-79
2023/08/29 02:19:34;;;;;;;7.05;6.28;;;;;;;;;;6216572;28;20056;-76
2023/08/29 02:22:36;;;;;;;7.95;6.40;;;;;;;;;;6232122;28;20805;-78
2023/08/29 02:25:37;;;;;;;7.85;7.05;;;;;;;;;;6199181;28;20042;-80
2023/08/29 02:28:39;;;;;;;10.13;6.90;;;;;;;;;;6231463;28;20081;-77
2023/08/29 02:31:41;;;;;;;7.20;6.38;;;;;;;;;;6216597;28;20180;-77
2023/08/29 02:34:42;;;;;;;11.07;7.50;;;;;;;;;;6214233;28;20647;-79
2023/08/29 02:37:44;;;;;;;8.90;6.97;;;;;;;;;;6231021;28;20064;-77
2023/08/29 02:40:46;;;;;;;6.78;6.18;;;;;;;;;;6234229;28;20155;-79
2023/08/29 02:43:47;;;;;;;11.05;7.22;;;;;;;;;;6228477;28;20253;-76
2023/08/29 02:46:49;;;;;;;10.23;7.47;;;;;;;;;;6233333;28;20041;-79
2023/08/29 02:49:50;;;;;;;9.50;7.15;;;;;;;;;;6228601;28;20415;-78
2023/08/29 02:52:52;;;;;;;7.45;6.60;;;;;;;;;;6234182;28;20065;-78
2023/08/29 02:55:56;;;;;;;7.82;7.03;;;;;;;;;;6231108;28;20060;-77
2023/08/29 02:58:57;;;;;;;8.30;7.18;;;;;;;;;;6214748;28;20098;-79
2023/08/29 03:02:02;;;;;;;9.02;7.03;;;;;;;;;;6237120;28;20045;-78
2023/08/29 03:05:04;;;;;;;9.68;7.80;;;;;;;;;;6229104;28;20588;-77
2023/08/29 03:08:06;;;;;;;8.70;7.05;;;;;;;;;;6214517;28;20411;-78
2023/08/29 03:11:09;;;;;;;9.40;7.40;;;;;;;;;;6230984;28;20037;-78
2023/08/29 03:14:10;;;;;;;8.13;7.32;;;;;;;;;;6233943;28;20046;-79
2023/08/29 03:17:12;;;;;;;9.60;7.18;;;;;;;;;;6222349;28;20046;-77
2023/08/29 03:20:15;;;;;;;8.27;7.47;;;;;;;;;;6229678;28;20136;-79
2023/08/29 03:23:17;;;;;;;8.45;7.40;;;;;;;;;;6233243;28;20087;-78
2023/08/29 03:26:19;;;;;;;8.43;7.00;;;;;;;;;;6229235;28;20048;-76
2023/08/29 03:29:21;;;;;;;9.32;7.43;;;;;;;;;;6226701;28;20392;-79
2023/08/29 03:32:22;;;;;;;7.55;6.72;;;;;;;;;;6227437;28;20076;-76
2023/08/29 03:35:24;;;;;;;9.73;7.15;;;;;;;;;;6227276;28;20041;-77
2023/08/29 03:38:26;;;;;;;8.93;7.10;;;;;;;;;;6226950;28;20156;-76
2023/08/29 03:41:27;;;;;;;8.40;7.05;;;;;;;;;;6209362;28;20041;-78
2023/08/29 03:44:29;;;;;;;12.52;7.88;;;;;;;;;;6209014;28;20045;-79
2023/08/29 03:47:33;;;;;;;10.77;7.15;;;;;;;;;;6232978;28;20041;-79
2023/08/29 03:50:35;;;;;;;9.20;7.07;;;;;;;;;;6197311;28;20120;-79
2023/08/29 03:53:38;;;;;;;10.65;7.85;;;;;;;;;;6232097;28;20064;-79
2023/08/29 03:56:43;;;;;;;12.10;8.07;;;;;;;;;;6230108;28;20057;-80
2023/08/29 03:59:45;;;;;;;;;;;;;;;;;;6216425;28;20141;-78
2023/08/29 04:02:46;;;;;;;8.85;7.18;;;;;;;;;;6234202;28;19928;-78
2023/08/29 04:05:48;;;;;;;8.57;7.65;;;;;;;;;;6228571;28;20052;-80
2023/08/29 04:08:51;;;;;;;12.52;8.13;;;;;;;;;;6234573;28;20038;-78
2023/08/29 04:11:52;;;;;;;12.25;7.65;;;;;;;;;;6232324;28;20046;-79
2023/08/29 04:14:54;;;;;;;12.15;8.25;;;;;;;;;;6228144;28;20582;-79
2023/08/29 04:17:56;;;;;;;9.82;7.38;;;;;;;;;;6234788;28;20101;-78
2023/08/29 04:20:59;;;;;;;10.18;7.85;;;;;;;;;;6234588;28;20519;-77
2023/08/29 04:24:01;;;;;;;8.93;7.63;;;;;;;;;;6194833;28;20056;-78
2023/08/29 04:27:03;;;;;;;10.18;7.38;;;;;;;;;;6210968;28;20046;-78
2023/08/29 04:30:05;;;;;;;11.27;8.15;;;;;;;;;;6230880;28;20053;-79
2023/08/29 04:33:06;;;;;;;11.57;8.20;;;;;;;;;;6226606;28;20049;-79
2023/08/29 04:36:08;;;;;;;14.57;8.82;;;;;;;;;;6208286;28;20064;-80
2023/08/29 04:39:10;;;;;;;13.40;8.27;;;;;;;;;;6230781;28;20049;-77
2023/08/29 04:42:11;;;;;;;12.35;8.13;;;;;;;;;;6227831;28;20042;-79
2023/08/29 04:45:13;;;;;;;13.38;8.10;;;;;;;;;;6233447;28;20049;-78
2023/08/29 04:48:15;;;;;;;10.70;7.60;;;;;;;;;;6233912;28;20053;-79
2023/08/29 04:51:16;;;;;;;11.48;7.78;;;;;;;;;;6230422;28;20052;-78
2023/08/29 04:54:19;;;;;;;11.40;7.30;;;;;;;;;;6234019;28;20053;-80
2023/08/29 04:57:21;;;;;;;13.82;7.57;;;;;;;;;;6216753;28;20041;-81
2023/08/29 05:00:23;;;;;;;11.20;7.47;;;;;;;;;;6213756;28;20042;-77
2023/08/29 05:03:25;;;;;;;11.00;7.25;;;;;;;;;;6228644;28;20048;-78
2023/08/29 05:06:27;;;;;;;9.60;7.60;;;;;;;;;;6229637;28;20052;-77
2023/08/29 05:09:29;;;;;;;9.27;7.68;;;;;;;;;;6213305;28;20060;-78
2023/08/29 05:12:31;;;;;;;13.65;7.93;;;;;;;;;;6211169;28;20045;-78
2023/08/29 05:15:32;;;;;;;10.32;7.78;;;;;;;;;;6213845;28;20042;-79
2023/08/29 05:18:34;;;;;;;11.30;7.82;;;;;;;;;;6192351;28;20419;-78
2023/08/29 05:21:37;;;;;;;12.70;7.72;;;;;;;;;;6198677;28;20171;-78
2023/08/29 05:24:43;;;;;;;14.98;7.80;;;;;;;;;;6197716;28;20407;-77
2023/08/29 05:27:45;;;;;;;13.05;7.97;;;;;;;;;;6233154;28;20052;-78
2023/08/29 05:30:46;;;;;;;12.00;8.55;;;;;;;;;;6202595;28;20072;-78
2023/08/29 05:33:48;;;;;;;12.32;7.95;;;;;;;;;;6228249;28;20551;-78
2023/08/29 05:36:50;;;;;;;10.23;7.43;;;;;;;;;;6227975;28;20181;-78
2023/08/29 05:39:52;;;;;;;12.38;7.38;;;;;;;;;;6231827;28;20046;-79
2023/08/29 05:42:54;;;;;;;10.02;7.30;;;;;;;;;;6227491;28;20056;-79
2023/08/29 05:45:56;;;;;;;14.10;7.32;;;;;;;;;;6228539;28;20407;-78
2023/08/29 05:48:59;;;;;;;10.88;7.00;;;;;;;;;;6230544;28;20440;-79
2023/08/29 05:52:01;;;;;;;10.43;6.68;;;;;;;;;;6229014;28;20046;-77
2023/08/29 05:55:03;;;;;;;13.13;7.90;;;;;;;;;;6228624;28;20123;-78
2023/08/29 05:58:05;;;;;;;12.95;7.80;;;;;;;;;;6229700;28;20526;-76
2023/08/29 06:01:08;;;;;;;15.82;7.97;;;;;;;;;;6195060;28;20401;-76
2023/08/29 06:04:11;;;;;;;13.23;7.50;;;;;;;;;;6215877;28;20576;-76
2023/08/29 06:07:12;;;;;;;10.82;7.38;;;;;;;;;;6206335;28;20048;-76
2023/08/29 06:10:14;;;;;;;14.13;7.18;;;;;;;;;;6230289;28;20045;-75
2023/08/29 06:13:16;;;;;;;9.98;6.55;;;;;;;;;;6230398;28;20037;-78
2023/08/29 06:16:18;;;;;;;9.70;6.75;;;;;;;;;;6227767;28;20054;-77
2023/08/29 06:19:20;;;;;;;12.55;7.60;;;;;;;;;;6228669;28;20041;-77
2023/08/29 06:22:22;;;;;;;9.80;6.93;;;;;;;;;;6228373;28;20088;-79
2023/08/29 06:25:24;;;;;;;12.63;6.53;;;;;;;;;;6230122;28;20577;-75
2023/08/29 06:28:26;;;;;;;14.23;7.63;;;;;;;;;;6224955;28;20164;-76
2023/08/29 06:31:28;;;;;;;10.15;6.45;;;;;;;;;;6227431;28;20114;-77
2023/08/29 06:34:29;;;;;;;11.32;6.20;;;;;;;;;;6223961;28;20053;-75
2023/08/29 06:37:31;;;;;;;10.95;6.00;;;;;;;;;;6222760;28;20046;-78
2023/08/29 06:40:33;;;;;;;12.38;6.30;;;;;;;;;;6215673;28;20046;-76
2023/08/29 06:43:35;;;;;;;11.30;6.30;;;;;;;;;;6221796;28;20045;-76
2023/08/29 06:46:37;;;;;;;9.98;5.55;;;;;;;;;;6226123;28;20034;-77
2023/08/29 06:49:39;;;;;;;9.68;6.40;;;;;;;;;;6210424;28;20057;-77
2023/08/29 06:52:41;;;;;;;11.98;6.05;;;;;;;;;;6218976;28;20526;-76
2023/08/29 06:55:46;;;;;;;12.27;6.05;;;;;;;;;;6220803;28;20060;-77
2023/08/29 06:58:48;;;;;;;10.77;6.10;;;;;;;;;;6227161;28;20132;-77
2023/08/29 07:01:49;;;;;;;11.05;6.35;;;;;;;;;;6225509;28;20073;-77
2023/08/29 07:04:54;;;;;;;9.13;6.63;;;;;;;;;;6225985;28;20098;-78
2023/08/29 07:07:56;;;;;;;8.88;6.05;;;;;;;;;;6227898;28;20045;-76
2023/08/29 07:10:57;;;;;;;11.27;6.55;;;;;;;;;;6229852;28;20068;-76
2023/08/29 07:13:59;;;;;;;18.70;6.75;;;;;;;;;;6222709;28;20128;-77
2023/08/29 07:17:00;;;;;;;11.73;6.47;;;;;;;;;;6210788;28;20128;-76
2023/08/29 07:20:11;;;;;;;12.18;6.10;;;;;;;;;;6233276;28;20056;-75
2023/08/29 07:23:13;;;;;;;11.73;6.40;;;;;;;;;;6205976;28;20049;-78
2023/08/29 07:26:15;;;;;;;10.88;6.22;;;;;;;;;;6211293;28;20126;-77
2023/08/29 07:29:16;;;;;;;13.10;6.18;;;;;;;;;;6212195;28;20044;-76
2023/08/29 07:32:18;;;;;;;6.50;5.07;;;;;;;;;;6209536;28;20124;-77
2023/08/29 07:35:19;;;;;;;12.85;5.95;;;;;;;;;;6199553;28;20040;-76
2023/08/29 07:38:21;;;;;;;8.45;5.70;;;;;;;;;;6209534;28;20179;-77
2023/08/29 07:41:23;;;;;;;10.35;5.97;;;;;;;;;;6228570;28;20053;-75
2023/08/29 07:44:24;;;;;;;11.60;5.80;;;;;;;;;;6224963;28;20049;-76
2023/08/29 07:47:26;;;;;;;11.25;6.07;;;;;;;;;;6206963;28;20041;-76
2023/08/29 07:50:28;;;;;;;10.60;5.43;;;;;;;;;;6231401;28;20063;-77
2023/08/29 07:53:29;;;;;;;9.15;5.65;;;;;;;;;;6212944;28;20148;-77
2023/08/29 07:56:31;;;;;;;13.60;5.97;;;;;;;;;;6230743;28;20050;-77
2023/08/29 07:59:33;;;;;;;11.00;5.57;;;;;;;;;;6234284;28;20470;-78
2023/08/29 08:02:38;;;;;;;13.77;6.00;;;;;;;;;;6234955;28;20638;-77
2023/08/29 08:05:40;;;;;;;10.10;5.93;;;;;;;;;;6231811;28;20077;-76
2023/08/29 08:08:41;;;;;;;7.95;5.25;;;;;;;;;;6227926;28;20108;-77
2023/08/29 08:11:43;;;;;;;11.18;5.68;;;;;;;;;;6232239;28;20057;-77
2023/08/29 08:14:44;;;;;;;8.55;5.80;;;;;;;;;;6233528;28;20148;-78
2023/08/29 08:17:46;;;;;;;10.55;5.35;;;;;;;;;;6233710;28;20070;-77
2023/08/29 08:20:48;;;;;;;10.77;5.82;;;;;;;;;;6231968;28;20156;-77
2023/08/29 08:23:50;;;;;;;9.45;4.88;;;;;;;;;;6232610;28;20072;-76
2023/08/29 08:26:51;;;;;;;9.65;4.85;;;;;;;;;;6232326;28;20045;-76
2023/08/29 08:29:53;;;;;;;6.43;4.78;;;;;;;;;;6231556;28;20132;-77
2023/08/29 08:32:55;;;;;;;7.43;5.20;;;;;;;;;;6230934;28;20045;-76
2023/08/29 08:35:56;;;;;;;8.45;5.25;;;;;;;;;;6227814;28;20053;-77
2023/08/29 08:38:58;;;;;;;8.00;4.90;;;;;;;;;;6231752;28;20144;-76
2023/08/29 08:42:02;;;;;;;9.80;5.85;;;;;;;;;;6232762;28;20139;-76
2023/08/29 08:45:06;;;;;;;12.00;5.80;;;;;;;;;;6212022;28;20052;-78
2023/08/29 08:48:08;;;;;;;10.77;5.30;;;;;;;;;;6232783;28;20052;-78
2023/08/29 08:51:11;;;;;;;8.75;5.22;;;;;;;;;;6213353;28;20604;-77
2023/08/29 08:54:14;;;;;;;8.32;4.95;;;;;;;;;;6216058;28;20100;-76
2023/08/29 08:57:15;;;;;;;7.90;4.57;;;;;;;;;;6198613;28;20082;-78
2023/08/29 09:00:17;;;;;;;5.53;4.75;;;;;;;;;;6205652;28;20046;-76
2023/08/29 09:03:19;;;;;;;6.38;4.60;;;;;;;;;;6232904;28;20082;-76
2023/08/29 09:06:21;;;;;;;5.20;4.10;;;;;;;;;;6229701;28;20045;-77
2023/08/29 09:09:23;;;;;;;7.13;6.22;;;;;;;;;;6224254;28;20076;-76
2023/08/29 09:12:25;;;;;;;4.80;3.75;;;;;;;;;;6216547;28;20073;-77
2023/08/29 09:15:27;;;;;;;5.47;4.78;;;;;;;;;;6230406;28;20067;-76
2023/08/29 09:18:31;;;;;;;5.72;5.15;;;;;;;;;;6230378;28;20389;-77
2023/08/29 09:21:33;;;;;;;4.47;3.80;;;;;;;;;;6229019;28;20049;-77
2023/08/29 09:24:37;;;;;;;5.20;3.22;;;;;;;;;;6231889;28;20041;-77
2023/08/29 09:27:49;;;;;;;3.25;2.95;;;;;;;;;;6214326;28;20061;-78
2023/08/29 09:30:51;;;;;;;5.65;2.97;;;;;;;;;;6225970;28;20064;-74
2023/08/29 09:33:53;;;;;;;3.60;2.83;;;;;;;;;;6207257;28;20140;-76
2023/08/29 09:36:58;;;;;;;5.80;3.17;;;;;;;;;;6226419;28;20069;-77
2023/08/29 09:40:04;;;;;;;3.65;2.80;;;;;;;;;;6226000;28;20108;-75
2023/08/29 09:43:21;;;;;;;4.53;2.92;;;;;;;;;;6204524;28;20679;-75
2023/08/29 09:46:26;;;;;;;3.88;2.80;;;;;;;;;;6222879;28;20089;-75
2023/08/29 09:49:38;;;;;;;4.97;3.08;;;;;;;;;;6229282;28;20045;-76
2023/08/29 09:52:40;;;;;;;5.45;2.72;;;;;;;;;;6225918;28;20500;-76
2023/08/29 09:55:46;;;;;;;7.45;3.75;;;;;;;;;;6223034;28;20046;-76
2023/08/29 09:58:49;;;;;;;6.55;3.15;;;;;;;;;;6204961;28;20057;-76
2023/08/29 10:01:53;;;;;;;3.60;2.80;;;;;;;;;;6206425;28;20038;-75
2023/08/29 10:04:58;;;;;;;6.90;3.40;;;;;;;;;;6225079;28;20044;-75
2023/08/29 10:08:21;;;;;;;12.10;3.20;;;;;;;;;;6226979;28;20045;-76
2023/08/29 10:11:24;;;;;;;10.60;3.72;;;;;;;;;;6222862;28;20049;-74
2023/08/29 10:14:31;;;;;;;4.72;3.05;;;;;;;;;;6223050;28;20419;-76
2023/08/29 10:17:35;;;;;;;6.97;3.30;;;;;;;;;;6226439;28;20045;-77
2023/08/29 10:20:37;;;;;;;5.25;2.92;;;;;;;;;;6223847;28;20128;-76
2023/08/29 10:23:40;;;;;;;3.53;2.78;;;;;;;;;;6208090;28;20041;-76
2023/08/29 10:26:44;;;;;;;5.57;2.70;;;;;;;;;;6208315;28;20571;-76
2023/08/29 10:29:45;;;;;;;4.50;3.05;;;;;;;;;;6219399;28;20653;-77
2023/08/29 10:32:48;;;;;;;3.97;2.30;;;;;;;;;;6193315;28;20046;-76
2023/08/29 10:35:50;;;;;;;4.18;2.53;;;;;;;;;;6208550;28;20050;-75
2023/08/29 10:38:52;;;;;;;3.30;2.47;;;;;;;;;;6222647;28;20045;-76
2023/08/29 10:41:55;;;;;;;6.22;2.65;;;;;;;;;;6224703;28;20401;-75
2023/08/29 10:44:58;;;;;;;4.13;2.53;;;;;;;;;;6195351;28;20139;-75
2023/08/29 10:47:59;;;;;;;3.65;2.22;;;;;;;;;;6226438;28;20403;-76
2023/08/29 10:51:10;;;;;;;2.67;2.10;;;;;;;;;;6193969;28;20048;-76
2023/08/29 10:54:12;;;;;;;3.58;1.98;;;;;;;;;;6221467;28;20042;-76
2023/08/29 10:57:30;;;;;;;3.90;2.50;;;;;;;;;;6209965;28;20894;-76
2023/08/29 11:00:51;;;;;;;3.78;2.30;;;;;;;;;;6224174;28;20040;-76
2023/08/29 11:03:54;;;;;;;2.28;1.90;;;;;;;;;;6225198;28;20180;-77
2023/08/29 11:06:56;;;;;;;3.75;2.30;;;;;;;;;;6224073;28;20042;-75
2023/08/29 11:10:22;;;;;;;3.45;1.85;;;;;;;;;;6225774;28;20041;-76
2023/08/29 11:13:23;;;;;;;3.90;2.17;;;;;;;;;;6207828;28;20496;-77
2023/08/29 11:16:30;;;;;;;3.20;2.13;;;;;;;;;;6226506;28;20427;-78
2023/08/29 11:19:33;;;;;;;2.78;2.03;;;;;;;;;;6225016;28;20049;-77
2023/08/29 11:22:35;;;;;;;2.90;2.30;;;;;;;;;;6168175;28;20056;-77
2023/08/29 11:25:38;;;;;;;3.55;2.63;;;;;;;;;;6207490;28;20053;-77
2023/08/29 11:28:42;;;;;;;2.40;2.08;;;;;;;;;;6226753;28;20504;-77
2023/08/29 11:31:45;;;;;;;2.90;2.08;;;;;;;;;;6217277;28;20045;-78
2023/08/29 11:34:54;;;;;;;4.78;2.40;;;;;;;;;;6215464;28;20038;-76
2023/08/29 11:37:58;;;;;;;4.10;2.38;;;;;;;;;;6226629;28;20076;-75
2023/08/29 11:41:04;;;;;;;3.05;2.00;;;;;;;;;;6213064;28;20045;-75
2023/08/29 11:44:30;;;;;;;3.45;2.78;;;;;;;;;;6230452;28;20184;-75
2023/08/29 11:47:52;;;;;;;4.30;2.30;;;;;;;;;;6235002;28;20156;-76
2023/08/29 11:50:55;;;;;;;5.68;2.63;;;;;;;;;;6231695;28;20164;-77
2023/08/29 11:53:57;;;;;;;4.30;2.80;;;;;;;;;;6234162;28;20049;-74
2023/08/29 11:56:59;;;;;;;3.78;2.58;;;;;;;;;;6220319;28;20404;-77
2023/08/29 12:00:00;;;;;;;3.83;2.88;;;;;;;;;;6234479;28;20050;-76
2023/08/29 12:03:05;;;;;;;5.75;3.33;;;;;;;;;;6235805;28;20045;-77
2023/08/29 12:06:11;;;;;;;5.40;3.50;;;;;;;;;;6227793;28;20038;-76
2023/08/29 12:09:21;;;;;;;5.60;3.10;;;;;;;;;;6229876;28;20131;-76
2023/08/29 12:12:32;;;;;;;4.32;3.20;;;;;;;;;;6226256;28;20508;-76
2023/08/29 12:15:34;;;;;;;5.88;3.67;;;;;;;;;;6230398;28;20046;-76
2023/08/29 12:18:45;;;;;;;4.82;3.28;;;;;;;;;;6229996;28;20091;-77
2023/08/29 12:21:54;;;;;;;3.00;2.10;;;;;;;;;;6211686;28;20045;-76
2023/08/29 12:24:58;;;;;;;2.85;2.40;;;;;;;;;;6218186;28;20048;-76
2023/08/29 12:28:00;;;;;;;5.43;2.78;;;;;;;;;;6207866;28;20095;-76
2023/08/29 12:31:01;;;;;;;4.70;2.30;;;;;;;;;;6227713;28;20057;-75
2023/08/29 12:34:04;;;;;;;2.63;2.00;;;;;;;;;;6227836;28;20052;-76
2023/08/29 12:37:05;;;;;;;3.60;2.50;;;;;;;;;;6226145;28;20041;-75
2023/08/29 12:40:08;;;;;;;3.25;2.22;;;;;;;;;;6212928;28;20045;-76
2023/08/29 12:43:12;;;;;;;4.88;2.67;;;;;;;;;;6213618;28;20131;-74
2023/08/29 12:46:14;;;;;;;4.43;2.63;;;;;;;;;;6208038;28;20145;-76
2023/08/29 12:49:16;;;;;;;3.17;2.85;;;;;;;;;;6221708;28;20730;-75
2023/08/29 12:52:19;;;;;;;5.10;3.22;;;;;;;;;;6202171;28;20136;-76
2023/08/29 12:55:20;;;;;;;;;;;;;;;;;;6215763;28;20053;-77
2023/08/29 12:58:22;;;;;;;11.63;3.85;;;;;;;;;;6223752;28;19921;-76
2023/08/29 13:01:27;;;;;;;7.85;3.45;;;;;;;;;;6222202;28;20045;-76
2023/08/29 13:04:29;;;;;;;4.25;2.33;;;;;;;;;;6226398;28;20045;-76
2023/08/29 13:07:31;;;;;;;3.28;2.30;;;;;;;;;;6224010;28;20033;-77
2023/08/29 13:10:32;;;;;;;4.72;2.55;;;;;;;;;;6230128;28;20057;-78
2023/08/29 13:13:34;;;;;;;3.78;2.42;;;;;;;;;;6222268;28;20045;-78
2023/08/29 13:16:36;;;;;;;2.93;1.93;;;;;;;;;;6223046;28;20424;-77
2023/08/29 13:19:39;;;;;;;2.33;2.05;;;;;;;;;;6223203;28;20627;-77
2023/08/29 13:22:40;;;;;;;2.65;1.77;;;;;;;;;;6223903;28;20080;-77
2023/08/29 13:25:42;;;;;;;5.43;2.55;;;;;;;;;;6222340;28;20107;-77
2023/08/29 13:28:44;;;;;;;4.00;2.50;;;;;;;;;;6220047;28;20049;-76
2023/08/29 13:31:49;;;;;;;3.60;2.60;;;;;;;;;;6226618;28;20726;-76
2023/08/29 13:34:51;;;;;;;3.90;2.30;;;;;;;;;;6223976;28;20175;-77
2023/08/29 13:37:53;;;;;;;3.90;2.25;;;;;;;;;;6223266;28;20046;-78
2023/08/29 13:40:55;;;;;;;4.28;2.22;;;;;;;;;;6227568;28;20046;-78
2023/08/29 13:43:56;;;;;;;4.10;2.28;;;;;;;;;;6222677;28;20042;-76
2023/08/29 13:46:58;;;;;;;4.85;2.60;;;;;;;;;;6209389;28;20072;-77
2023/08/29 13:50:00;;;;;;;3.28;2.22;;;;;;;;;;6225037;28;20139;-76
2023/08/29 13:53:01;;;;;;;2.90;2.03;;;;;;;;;;6228560;28;20045;-77
2023/08/29 13:56:03;;;;;;;3.75;2.33;;;;;;;;;;6222092;28;20088;-76
2023/08/29 13:59:05;;;;;;;2.47;2.17;;;;;;;;;;6229848;28;20135;-75
2023/08/29 14:02:09;;;;;;;3.90;2.40;;;;;;;;;;6229947;28;20232;-76
2023/08/29 14:05:11;;;;;;;2.95;1.85;;;;;;;;;;6225026;28;20033;-77
2023/08/29 14:08:12;;;;;;;4.33;2.03;;;;;;;;;;6228764;28;20065;-76
2023/08/29 14:11:14;;;;;;;2.92;2.17;;;;;;;;;;6224735;28;20140;-77
2023/08/29 14:14:16;;;;;;;4.53;2.60;;;;;;;;;;6226131;28;20190;-76
2023/08/29 14:17:18;;;;;;;3.30;2.90;;;;;;;;;;6225963;28;20124;-75
2023/08/29 14:20:20;;;;;;;4.32;2.50;;;;;;;;;;6207873;28;20124;-76
2023/08/29 14:23:21;;;;;;;2.80;2.03;;;;;;;;;;6231956;28;20068;-77
2023/08/29 14:26:23;;;;;;;3.70;2.13;;;;;;;;;;6226626;28;20172;-76
2023/08/29 14:29:28;;;;;;;4.32;2.20;;;;;;;;;;6227868;28;20151;-76
2023/08/29 14:32:30;;;;;;;2.75;1.90;;;;;;;;;;6229009;28;20046;-76
2023/08/29 14:35:31;;;;;;;4.10;2.30;;;;;;;;;;6228169;28;20037;-77
2023/08/29 14:38:33;;;;;;;2.20;2.00;;;;;;;;;;6224139;28;20049;-75
2023/08/29 14:41:35;;;;;;;5.13;2.00;;;;;;;;;;6224504;28;20155;-75
2023/08/29 14:44:36;;;;;;;2.80;1.38;;;;;;;;;;6224512;28;20038;-77
2023/08/29 14:47:38;;;;;;;3.38;1.50;;;;;;;;;;6226103;28;20045;-76
2023/08/29 14:50:44;;;;;;;2.72;1.60;;;;;;;;;;6226006;28;20080;-76
2023/08/29 14:53:46;;;;;;;2.75;1.70;;;;;;;;;;6225430;28;20627;-76
2023/08/29 14:56:47;;;;;;;2.53;2.05;;;;;;;;;;6210659;28;20098;-75
2023/08/29 14:59:49;;;;;;;3.33;1.77;;;;;;;;;;6223318;28;20053;-77
2023/08/29 15:02:51;;;;;;;2.72;2.00;;;;;;;;;;6226676;28;20131;-76
2023/08/29 15:05:57;;;;;;;4.60;2.00;;;;;;;;;;6224499;28;20076;-77
2023/08/29 15:08:59;;;;;;;3.88;1.95;;;;;;;;;;6211267;28;20050;-77
2023/08/29 15:12:03;;;;;;;3.00;2.30;;;;;;;;;;6162102;28;1380310;-76
2023/08/29 15:15:07;;;;;;;2.88;2.10;;;;;;;;;;6226351;28;20049;-77
2023/08/29 15:18:08;;;;;;;3.83;2.53;;;;;;;;;;6223557;28;20034;-75
2023/08/29 15:21:11;;;;;;;5.07;2.28;;;;;;;;;;6225812;28;20045;-76
2023/08/29 15:24:15;;;;;;;3.72;2.28;;;;;;;;;;6203252;28;20046;-77
2023/08/29 15:27:16;;;;;;;2.83;2.33;;;;;;;;;;6205201;28;20079;-77
2023/08/29 15:30:18;;;;;;;3.25;2.33;;;;;;;;;;6219635;28;20044;-77
2023/08/29 15:33:21;;;;;;;3.67;2.53;;;;;;;;;;6209975;28;20128;-77
2023/08/29 15:36:25;;;;;;;3.40;2.60;;;;;;;;;;6223964;28;20038;-76
2023/08/29 15:39:29;;;;;;;5.40;2.20;;;;;;;;;;6227976;28;20041;-75
2023/08/29 15:42:31;;;;;;;2.60;2.40;;;;;;;;;;6228786;28;20053;-77
2023/08/29 15:45:35;;;;;;;3.92;2.40;;;;;;;;;;6225137;28;20692;-77
2023/08/29 15:48:37;;;;;;;4.38;2.55;;;;;;;;;;6227828;28;20519;-75
2023/08/29 15:51:38;;;;;;;4.75;3.33;;;;;;;;;;6204263;28;20127;-77
2023/08/29 15:54:40;;;;;;;7.55;5.40;;;;;;;;;;6209534;28;20069;-77
2023/08/29 15:57:42;;;;;;;3.47;2.67;;;;;;;;;;6221009;28;20132;-77
2023/08/29 16:00:43;;;;;;;3.13;2.65;;;;;;;;;;6223892;28;20101;-75
2023/08/29 16:03:45;;;;;;;2.60;2.40;;;;;;;;;;6198947;28;20145;-78
2023/08/29 16:06:47;;;;;;;4.18;2.20;;;;;;;;;;6220646;28;20042;-76
2023/08/29 16:09:48;;;;;;;3.72;2.30;;;;;;;;;;6222781;28;20172;-75
2023/08/29 16:12:50;;;;;;;2.60;2.10;;;;;;;;;;6224152;28;20045;-78
2023/08/29 16:15:56;;;;;;;4.25;2.20;;;;;;;;;;6226983;28;20080;-77
2023/08/29 16:18:57;;;;;;;3.38;2.20;;;;;;;;;;6224052;28;20065;-76
2023/08/29 16:21:59;;;;;;;5.05;3.03;;;;;;;;;;6222584;28;20050;-76
2023/08/29 16:25:01;;;;;;;6.88;3.38;;;;;;;;;;6227788;28;20666;-77
2023/08/29 16:28:03;;;;;;;6.35;2.97;;;;;;;;;;6226783;28;20049;-75
2023/08/29 16:31:05;;;;;;;3.63;2.70;;;;;;;;;;6218770;28;20042;-77
2023/08/29 16:34:07;;;;;;;2.42;2.22;;;;;;;;;;6223615;28;20049;-75
2023/08/29 16:37:09;;;;;;;3.17;2.15;;;;;;;;;;6189931;28;20123;-77
2023/08/29 16:40:11;;;;;;;3.47;2.50;;;;;;;;;;6209664;28;20057;-78
2023/08/29 16:43:13;;;;;;;2.80;2.40;;;;;;;;;;6219505;28;20052;-76
2023/08/29 16:46:14;;;;;;;4.70;2.50;;;;;;;;;;6225654;28;20057;-76
2023/08/29 16:49:16;;;;;;;3.63;2.83;;;;;;;;;;6208716;28;20057;-77
2023/08/29 16:52:18;;;;;;;3.63;2.42;;;;;;;;;;6223855;28;20076;-76
2023/08/29 16:55:19;;;;;;;4.80;2.60;;;;;;;;;;6221924;28;20124;-76
2023/08/29 16:58:21;;;;;;;3.80;2.50;;;;;;;;;;6231902;28;20115;-77
2023/08/29 17:01:23;;;;;;;2.97;2.53;;;;;;;;;;6216646;28;20045;-75
2023/08/29 17:04:24;;;;;;;4.00;2.45;;;;;;;;;;6223821;28;20160;-75
2023/08/29 17:07:27;;;;;;;3.67;2.75;;;;;;;;;;6202861;28;20045;-77
2023/08/29 17:10:29;;;;;;;3.63;2.75;;;;;;;;;;6231892;28;20061;-76
2023/08/29 17:13:30;;;;;;;6.47;3.97;;;;;;;;;;6214657;28;20048;-78
2023/08/29 17:16:32;;;;;;;5.60;2.70;;;;;;;;;;6226663;28;20116;-78
2023/08/29 17:19:34;;;;;;;2.78;2.40;;;;;;;;;;6181290;28;20036;-77
2023/08/29 17:22:35;;;;;;;2.63;2.28;;;;;;;;;;6218264;28;20137;-77
2023/08/29 17:25:38;;;;;;;2.60;2.40;;;;;;;;;;6190854;28;20497;-78
2023/08/29 17:28:40;;;;;;;4.60;3.10;;;;;;;;;;6205699;28;20046;-77
2023/08/29 17:31:42;;;;;;;3.33;2.33;;;;;;;;;;6211960;28;20061;-76
2023/08/29 17:34:43;;;;;;;4.35;2.10;;;;;;;;;;6217620;28;20061;-77
2023/08/29 17:37:45;;;;;;;3.15;2.25;;;;;;;;;;6229790;28;20054;-76
2023/08/29 17:40:46;;;;;;;5.57;2.38;;;;;;;;;;6190373;28;20147;-78
2023/08/29 17:43:48;;;;;;;3.30;2.17;;;;;;;;;;6217147;28;21344;-77
2023/08/29 17:46:50;;;;;;;4.07;2.85;;;;;;;;;;6221657;28;20045;-77
2023/08/29 17:49:51;;;;;;;3.65;3.33;;;;;;;;;;6227624;28;20124;-77
2023/08/29 17:52:53;;;;;;;4.30;2.60;;;;;;;;;;6231815;28;20053;-77
2023/08/29 17:55:55;;;;;;;6.97;2.85;;;;;;;;;;6229814;28;20056;-77
2023/08/29 17:58:58;;;;;;;3.15;2.67;;;;;;;;;;6226142;28;20049;-75
2023/08/29 18:01:59;;;;;;;3.70;2.40;;;;;;;;;;6207451;28;20053;-76
2023/08/29 18:05:01;;;;;;;3.05;2.45;;;;;;;;;;6227766;28;20060;-75
2023/08/29 18:08:05;;;;;;;5.32;2.80;;;;;;;;;;6211530;28;20049;-77
2023/08/29 18:11:07;;;;;;;3.42;2.58;;;;;;;;;;6210108;28;20510;-77
2023/08/29 18:14:09;;;;;;;4.43;2.58;;;;;;;;;;6228886;28;20076;-76